sensor_id;sensor_type;location;lat;lon;timestamp;P1;durP1;ratioP1;P2;durP2;ratioP2
17153;SDS011;8692;52.164;7.558;2023-05-19T00:00:18;5.27;;;4.10;;
17153;SDS011;8692;52.164;7.558;2023-05-19T00:02:49;7.53;;;4.30;;
17153;SDS011;8692;52.164;7.558;2023-05-19T00:05:18;9.50;;;4.57;;
17153;SDS011;8692;52.164;7.558;2023-05-19T00:07:48;8.27;;;4.17;;
17153;SDS011;8692;52.164;7.558;2023-05-19T00:10:20;6.30;;;3.70;;
17153;SDS011;8692;52.164;7.558;2023-05-19T00:12:49;7.63;;;3.70;;
17153;SDS011;8692;52.164;7.558;2023-05-19T00:15:19;6.23;;;4.27;;
17153;SDS011;8692;52.164;7.558;2023-05-19T00:17:50;7.23;;;3.60;;
17153;SDS011;8692;52.164;7.558;2023-05-19T00:20:20;6.80;;;3.57;;
17153;SDS011;8692;52.164;7.558;2023-05-19T00:22:49;3.67;;;2.70;;
17153;SDS011;8692;52.164;7.558;2023-05-19T00:25:17;5.73;;;3.90;;
17153;SDS011;8692;52.164;7.558;2023-05-19T00:27:49;6.43;;;3.53;;
17153;SDS011;8692;52.164;7.558;2023-05-19T00:30:17;5.47;;;3.33;;
17153;SDS011;8692;52.164;7.558;2023-05-19T00:32:48;5.10;;;2.90;;
17153;SDS011;8692;52.164;7.558;2023-05-19T00:35:18;6.60;;;3.43;;
17153;SDS011;8692;52.164;7.558;2023-05-19T00:37:47;5.43;;;3.03;;
17153;SDS011;8692;52.164;7.558;2023-05-19T00:40:15;5.10;;;3.33;;
17153;SDS011;8692;52.164;7.558;2023-05-19T00:42:47;6.03;;;3.40;;
17153;SDS011;8692;52.164;7.558;2023-05-19T00:45:15;6.10;;;3.47;;
17153;SDS011;8692;52.164;7.558;2023-05-19T00:47:43;5.77;;;3.27;;
17153;SDS011;8692;52.164;7.558;2023-05-19T00:50:12;6.07;;;3.50;;
17153;SDS011;8692;52.164;7.558;2023-05-19T00:52:40;5.30;;;3.60;;
17153;SDS011;8692;52.164;7.558;2023-05-19T00:55:11;6.20;;;3.70;;
17153;SDS011;8692;52.164;7.558;2023-05-19T00:57:43;6.67;;;3.27;;
17153;SDS011;8692;52.164;7.558;2023-05-19T01:00:16;4.10;;;3.17;;
17153;SDS011;8692;52.164;7.558;2023-05-19T01:02:47;7.27;;;3.03;;
17153;SDS011;8692;52.164;7.558;2023-05-19T01:05:18;5.57;;;3.17;;
17153;SDS011;8692;52.164;7.558;2023-05-19T01:07:47;4.87;;;3.90;;
17153;SDS011;8692;52.164;7.558;2023-05-19T01:10:18;4.77;;;3.23;;
17153;SDS011;8692;52.164;7.558;2023-05-19T01:12:47;7.23;;;3.57;;
17153;SDS011;8692;52.164;7.558;2023-05-19T01:15:17;8.47;;;4.33;;
17153;SDS011;8692;52.164;7.558;2023-05-19T01:17:55;5.33;;;3.30;;
17153;SDS011;8692;52.164;7.558;2023-05-19T01:20:31;6.83;;;3.50;;
17153;SDS011;8692;52.164;7.558;2023-05-19T01:29:10;6.37;;;3.93;;
17153;SDS011;8692;52.164;7.558;2023-05-19T01:31:59;5.43;;;3.80;;
17153;SDS011;8692;52.164;7.558;2023-05-19T01:34:29;3.63;;;3.20;;
17153;SDS011;8692;52.164;7.558;2023-05-19T01:36:58;7.73;;;4.40;;
17153;SDS011;8692;52.164;7.558;2023-05-19T01:39:29;5.57;;;3.20;;
17153;SDS011;8692;52.164;7.558;2023-05-19T01:42:02;6.33;;;3.93;;
17153;SDS011;8692;52.164;7.558;2023-05-19T01:44:32;4.80;;;3.70;;
17153;SDS011;8692;52.164;7.558;2023-05-19T01:47:04;5.90;;;3.63;;
17153;SDS011;8692;52.164;7.558;2023-05-19T01:49:35;6.83;;;4.13;;
17153;SDS011;8692;52.164;7.558;2023-05-19T01:52:04;5.17;;;3.63;;
17153;SDS011;8692;52.164;7.558;2023-05-19T01:54:32;5.07;;;3.70;;
17153;SDS011;8692;52.164;7.558;2023-05-19T01:57:03;6.27;;;4.17;;
17153;SDS011;8692;52.164;7.558;2023-05-19T01:59:41;9.23;;;4.47;;
17153;SDS011;8692;52.164;7.558;2023-05-19T02:02:19;6.20;;;3.57;;
17153;SDS011;8692;52.164;7.558;2023-05-19T02:04:56;5.57;;;3.77;;
17153;SDS011;8692;52.164;7.558;2023-05-19T02:07:30;5.30;;;3.77;;
17153;SDS011;8692;52.164;7.558;2023-05-19T02:10:04;6.70;;;4.03;;
17153;SDS011;8692;52.164;7.558;2023-05-19T02:12:37;6.60;;;4.07;;
17153;SDS011;8692;52.164;7.558;2023-05-19T02:15:09;6.40;;;3.63;;
17153;SDS011;8692;52.164;7.558;2023-05-19T02:17:41;4.90;;;4.00;;
17153;SDS011;8692;52.164;7.558;2023-05-19T02:20:13;4.37;;;3.83;;
17153;SDS011;8692;52.164;7.558;2023-05-19T02:22:45;6.47;;;3.57;;
17153;SDS011;8692;52.164;7.558;2023-05-19T02:25:13;5.97;;;3.73;;
17153;SDS011;8692;52.164;7.558;2023-05-19T02:27:44;3.63;;;2.97;;
17153;SDS011;8692;52.164;7.558;2023-05-19T02:30:14;4.50;;;3.50;;
17153;SDS011;8692;52.164;7.558;2023-05-19T02:32:46;5.40;;;3.57;;
17153;SDS011;8692;52.164;7.558;2023-05-19T02:35:16;6.37;;;3.43;;
17153;SDS011;8692;52.164;7.558;2023-05-19T02:37:45;4.33;;;3.60;;
17153;SDS011;8692;52.164;7.558;2023-05-19T02:40:13;7.97;;;3.80;;
17153;SDS011;8692;52.164;7.558;2023-05-19T02:42:42;7.47;;;4.03;;
17153;SDS011;8692;52.164;7.558;2023-05-19T02:45:13;4.83;;;3.70;;
17153;SDS011;8692;52.164;7.558;2023-05-19T02:47:41;5.87;;;3.50;;
17153;SDS011;8692;52.164;7.558;2023-05-19T02:50:11;5.33;;;3.83;;
17153;SDS011;8692;52.164;7.558;2023-05-19T02:52:41;5.17;;;3.90;;
17153;SDS011;8692;52.164;7.558;2023-05-19T02:55:10;6.03;;;3.67;;
17153;SDS011;8692;52.164;7.558;2023-05-19T02:57:42;5.77;;;4.00;;
17153;SDS011;8692;52.164;7.558;2023-05-19T03:00:10;5.33;;;3.87;;
17153;SDS011;8692;52.164;7.558;2023-05-19T03:02:39;6.40;;;3.40;;
17153;SDS011;8692;52.164;7.558;2023-05-19T03:05:13;6.33;;;3.67;;
17153;SDS011;8692;52.164;7.558;2023-05-19T03:07:41;7.13;;;3.97;;
17153;SDS011;8692;52.164;7.558;2023-05-19T03:10:12;3.80;;;3.23;;
17153;SDS011;8692;52.164;7.558;2023-05-19T03:12:40;4.77;;;3.33;;
17153;SDS011;8692;52.164;7.558;2023-05-19T03:15:11;5.20;;;3.30;;
17153;SDS011;8692;52.164;7.558;2023-05-19T03:17:40;4.03;;;3.53;;
17153;SDS011;8692;52.164;7.558;2023-05-19T03:20:09;5.20;;;3.50;;
17153;SDS011;8692;52.164;7.558;2023-05-19T03:22:39;3.77;;;3.20;;
17153;SDS011;8692;52.164;7.558;2023-05-19T03:25:09;4.20;;;3.73;;
17153;SDS011;8692;52.164;7.558;2023-05-19T03:27:38;5.00;;;3.00;;
17153;SDS011;8692;52.164;7.558;2023-05-19T03:30:07;4.60;;;3.47;;
17153;SDS011;8692;52.164;7.558;2023-05-19T03:32:48;3.50;;;3.07;;
17153;SDS011;8692;52.164;7.558;2023-05-19T03:35:18;5.30;;;3.13;;
17153;SDS011;8692;52.164;7.558;2023-05-19T03:37:47;5.90;;;3.33;;
17153;SDS011;8692;52.164;7.558;2023-05-19T03:40:19;3.57;;;2.90;;
17153;SDS011;8692;52.164;7.558;2023-05-19T03:42:49;5.53;;;3.83;;
17153;SDS011;8692;52.164;7.558;2023-05-19T03:45:22;4.83;;;3.33;;
17153;SDS011;8692;52.164;7.558;2023-05-19T03:47:51;4.13;;;3.17;;
17153;SDS011;8692;52.164;7.558;2023-05-19T03:50:31;4.53;;;3.00;;
17153;SDS011;8692;52.164;7.558;2023-05-19T03:53:11;3.60;;;2.87;;
17153;SDS011;8692;52.164;7.558;2023-05-19T03:55:40;6.30;;;3.90;;
17153;SDS011;8692;52.164;7.558;2023-05-19T03:58:11;4.83;;;3.60;;
17153;SDS011;8692;52.164;7.558;2023-05-19T04:00:40;4.27;;;3.20;;
17153;SDS011;8692;52.164;7.558;2023-05-19T04:03:08;4.90;;;3.37;;
17153;SDS011;8692;52.164;7.558;2023-05-19T04:05:39;6.00;;;3.70;;
17153;SDS011;8692;52.164;7.558;2023-05-19T04:08:07;9.07;;;4.07;;
17153;SDS011;8692;52.164;7.558;2023-05-19T04:10:36;5.00;;;3.30;;
17153;SDS011;8692;52.164;7.558;2023-05-19T04:13:04;5.27;;;3.20;;
17153;SDS011;8692;52.164;7.558;2023-05-19T04:15:36;4.77;;;3.23;;
17153;SDS011;8692;52.164;7.558;2023-05-19T04:18:04;4.57;;;3.43;;
17153;SDS011;8692;52.164;7.558;2023-05-19T04:20:32;4.37;;;3.30;;
17153;SDS011;8692;52.164;7.558;2023-05-19T04:23:01;3.00;;;2.70;;
17153;SDS011;8692;52.164;7.558;2023-05-19T04:25:30;3.40;;;3.00;;
17153;SDS011;8692;52.164;7.558;2023-05-19T04:28:00;3.43;;;2.90;;
17153;SDS011;8692;52.164;7.558;2023-05-19T04:30:32;4.07;;;2.80;;
17153;SDS011;8692;52.164;7.558;2023-05-19T04:33:03;3.27;;;2.80;;
17153;SDS011;8692;52.164;7.558;2023-05-19T04:35:32;3.37;;;2.90;;
17153;SDS011;8692;52.164;7.558;2023-05-19T04:38:03;5.40;;;2.83;;
17153;SDS011;8692;52.164;7.558;2023-05-19T04:40:32;4.33;;;2.97;;
17153;SDS011;8692;52.164;7.558;2023-05-19T04:43:04;5.73;;;2.77;;
17153;SDS011;8692;52.164;7.558;2023-05-19T04:45:34;3.67;;;2.70;;
17153;SDS011;8692;52.164;7.558;2023-05-19T04:48:10;5.17;;;3.47;;
17153;SDS011;8692;52.164;7.558;2023-05-19T04:50:42;5.63;;;3.43;;
17153;SDS011;8692;52.164;7.558;2023-05-19T04:53:13;3.43;;;2.70;;
17153;SDS011;8692;52.164;7.558;2023-05-19T04:55:44;4.50;;;3.17;;
17153;SDS011;8692;52.164;7.558;2023-05-19T04:58:14;5.13;;;3.00;;
17153;SDS011;8692;52.164;7.558;2023-05-19T05:00:47;5.93;;;3.30;;
17153;SDS011;8692;52.164;7.558;2023-05-19T05:03:15;9.50;;;3.87;;
17153;SDS011;8692;52.164;7.558;2023-05-19T05:05:44;5.63;;;3.30;;
17153;SDS011;8692;52.164;7.558;2023-05-19T05:08:15;6.40;;;3.63;;
17153;SDS011;8692;52.164;7.558;2023-05-19T05:10:55;7.00;;;3.63;;
17153;SDS011;8692;52.164;7.558;2023-05-19T05:13:26;6.37;;;3.27;;
17153;SDS011;8692;52.164;7.558;2023-05-19T05:15:55;6.30;;;3.83;;
17153;SDS011;8692;52.164;7.558;2023-05-19T05:18:27;5.97;;;3.80;;
17153;SDS011;8692;52.164;7.558;2023-05-19T05:20:59;7.47;;;3.30;;
17153;SDS011;8692;52.164;7.558;2023-05-19T05:23:31;5.23;;;3.40;;
17153;SDS011;8692;52.164;7.558;2023-05-19T05:26:02;6.67;;;3.37;;
17153;SDS011;8692;52.164;7.558;2023-05-19T05:28:40;5.83;;;4.10;;
17153;SDS011;8692;52.164;7.558;2023-05-19T05:31:09;7.07;;;3.37;;
17153;SDS011;8692;52.164;7.558;2023-05-19T05:33:40;5.10;;;2.90;;
17153;SDS011;8692;52.164;7.558;2023-05-19T05:36:09;5.53;;;3.50;;
17153;SDS011;8692;52.164;7.558;2023-05-19T05:38:40;3.67;;;2.87;;
17153;SDS011;8692;52.164;7.558;2023-05-19T05:41:12;8.13;;;3.90;;
17153;SDS011;8692;52.164;7.558;2023-05-19T05:43:46;6.90;;;3.53;;
17153;SDS011;8692;52.164;7.558;2023-05-19T05:46:17;10.90;;;3.50;;
17153;SDS011;8692;52.164;7.558;2023-05-19T05:48:45;10.40;;;3.67;;
17153;SDS011;8692;52.164;7.558;2023-05-19T05:51:15;8.43;;;4.07;;
17153;SDS011;8692;52.164;7.558;2023-05-19T05:53:43;5.57;;;3.33;;
17153;SDS011;8692;52.164;7.558;2023-05-19T05:56:20;7.70;;;3.83;;
17153;SDS011;8692;52.164;7.558;2023-05-19T05:58:53;7.63;;;3.33;;
17153;SDS011;8692;52.164;7.558;2023-05-19T06:01:22;5.90;;;3.30;;
17153;SDS011;8692;52.164;7.558;2023-05-19T06:03:52;4.73;;;3.20;;
17153;SDS011;8692;52.164;7.558;2023-05-19T06:06:22;5.40;;;3.13;;
17153;SDS011;8692;52.164;7.558;2023-05-19T06:08:51;6.67;;;3.20;;
17153;SDS011;8692;52.164;7.558;2023-05-19T06:11:23;7.47;;;3.03;;
17153;SDS011;8692;52.164;7.558;2023-05-19T06:13:54;8.80;;;3.13;;
17153;SDS011;8692;52.164;7.558;2023-05-19T06:16:42;6.00;;;2.90;;
17153;SDS011;8692;52.164;7.558;2023-05-19T06:19:14;9.40;;;2.70;;
17153;SDS011;8692;52.164;7.558;2023-05-19T06:21:43;6.17;;;2.77;;
17153;SDS011;8692;52.164;7.558;2023-05-19T06:24:11;8.90;;;3.20;;
17153;SDS011;8692;52.164;7.558;2023-05-19T06:26:40;4.67;;;2.40;;
17153;SDS011;8692;52.164;7.558;2023-05-19T06:29:12;7.63;;;2.60;;
17153;SDS011;8692;52.164;7.558;2023-05-19T06:31:43;7.90;;;3.00;;
17153;SDS011;8692;52.164;7.558;2023-05-19T06:34:14;8.83;;;2.67;;
17153;SDS011;8692;52.164;7.558;2023-05-19T06:36:45;12.20;;;2.87;;
17153;SDS011;8692;52.164;7.558;2023-05-19T06:39:15;6.03;;;2.47;;
17153;SDS011;8692;52.164;7.558;2023-05-19T06:41:44;6.67;;;3.20;;
17153;SDS011;8692;52.164;7.558;2023-05-19T06:44:26;10.53;;;2.90;;
17153;SDS011;8692;52.164;7.558;2023-05-19T06:46:54;8.37;;;2.40;;
17153;SDS011;8692;52.164;7.558;2023-05-19T06:49:23;5.87;;;2.67;;
17153;SDS011;8692;52.164;7.558;2023-05-19T06:51:54;5.60;;;2.80;;
17153;SDS011;8692;52.164;7.558;2023-05-19T06:54:25;11.87;;;2.80;;
17153;SDS011;8692;52.164;7.558;2023-05-19T06:56:56;7.17;;;2.50;;
17153;SDS011;8692;52.164;7.558;2023-05-19T06:59:24;8.50;;;2.27;;
17153;SDS011;8692;52.164;7.558;2023-05-19T07:01:54;5.87;;;2.70;;
17153;SDS011;8692;52.164;7.558;2023-05-19T07:04:25;6.20;;;2.40;;
17153;SDS011;8692;52.164;7.558;2023-05-19T07:06:54;4.70;;;2.20;;
17153;SDS011;8692;52.164;7.558;2023-05-19T07:09:23;7.43;;;2.40;;
17153;SDS011;8692;52.164;7.558;2023-05-19T07:11:55;5.03;;;2.60;;
17153;SDS011;8692;52.164;7.558;2023-05-19T07:14:23;4.53;;;2.20;;
17153;SDS011;8692;52.164;7.558;2023-05-19T07:16:53;8.37;;;2.60;;
17153;SDS011;8692;52.164;7.558;2023-05-19T07:19:22;5.37;;;2.60;;
17153;SDS011;8692;52.164;7.558;2023-05-19T07:21:53;3.83;;;2.10;;
17153;SDS011;8692;52.164;7.558;2023-05-19T07:24:24;6.93;;;2.30;;
17153;SDS011;8692;52.164;7.558;2023-05-19T07:26:53;6.90;;;2.60;;
17153;SDS011;8692;52.164;7.558;2023-05-19T07:29:21;6.37;;;1.93;;
17153;SDS011;8692;52.164;7.558;2023-05-19T07:31:54;5.33;;;2.37;;
17153;SDS011;8692;52.164;7.558;2023-05-19T07:34:23;8.40;;;2.23;;
17153;SDS011;8692;52.164;7.558;2023-05-19T07:36:52;5.07;;;2.13;;
17153;SDS011;8692;52.164;7.558;2023-05-19T07:39:22;5.60;;;1.83;;
17153;SDS011;8692;52.164;7.558;2023-05-19T07:41:55;5.77;;;2.20;;
17153;SDS011;8692;52.164;7.558;2023-05-19T07:44:24;7.20;;;2.30;;
17153;SDS011;8692;52.164;7.558;2023-05-19T07:46:57;4.53;;;1.97;;
17153;SDS011;8692;52.164;7.558;2023-05-19T07:49:25;8.70;;;2.13;;
17153;SDS011;8692;52.164;7.558;2023-05-19T07:51:53;4.33;;;2.03;;
17153;SDS011;8692;52.164;7.558;2023-05-19T07:54:22;4.32;;;2.25;;
17153;SDS011;8692;52.164;7.558;2023-05-19T07:56:50;6.03;;;1.90;;
17153;SDS011;8692;52.164;7.558;2023-05-19T07:59:18;6.27;;;1.67;;
17153;SDS011;8692;52.164;7.558;2023-05-19T08:01:46;6.20;;;1.90;;
17153;SDS011;8692;52.164;7.558;2023-05-19T08:04:16;5.00;;;1.60;;
17153;SDS011;8692;52.164;7.558;2023-05-19T08:06:47;5.63;;;1.80;;
17153;SDS011;8692;52.164;7.558;2023-05-19T08:09:17;8.27;;;2.47;;
17153;SDS011;8692;52.164;7.558;2023-05-19T08:11:45;6.37;;;2.10;;
17153;SDS011;8692;52.164;7.558;2023-05-19T08:14:17;4.03;;;1.80;;
17153;SDS011;8692;52.164;7.558;2023-05-19T08:16:48;7.07;;;2.20;;
17153;SDS011;8692;52.164;7.558;2023-05-19T08:19:18;4.97;;;1.87;;
17153;SDS011;8692;52.164;7.558;2023-05-19T08:21:47;3.93;;;1.73;;
17153;SDS011;8692;52.164;7.558;2023-05-19T08:24:15;7.33;;;2.10;;
17153;SDS011;8692;52.164;7.558;2023-05-19T08:26:45;7.53;;;1.93;;
17153;SDS011;8692;52.164;7.558;2023-05-19T08:29:13;4.70;;;1.63;;
17153;SDS011;8692;52.164;7.558;2023-05-19T08:31:42;5.70;;;1.80;;
17153;SDS011;8692;52.164;7.558;2023-05-19T08:34:12;4.13;;;1.87;;
17153;SDS011;8692;52.164;7.558;2023-05-19T08:36:42;5.57;;;1.80;;
17153;SDS011;8692;52.164;7.558;2023-05-19T08:39:10;3.40;;;1.60;;
17153;SDS011;8692;52.164;7.558;2023-05-19T08:41:43;10.17;;;2.23;;
17153;SDS011;8692;52.164;7.558;2023-05-19T08:44:15;6.10;;;1.90;;
17153;SDS011;8692;52.164;7.558;2023-05-19T08:46:44;2.53;;;1.30;;
17153;SDS011;8692;52.164;7.558;2023-05-19T08:49:14;5.53;;;2.00;;
17153;SDS011;8692;52.164;7.558;2023-05-19T08:51:48;4.33;;;1.50;;
17153;SDS011;8692;52.164;7.558;2023-05-19T08:54:23;7.47;;;1.87;;
17153;SDS011;8692;52.164;7.558;2023-05-19T08:56:59;8.87;;;2.17;;
17153;SDS011;8692;52.164;7.558;2023-05-19T08:59:31;4.40;;;1.47;;
17153;SDS011;8692;52.164;7.558;2023-05-19T09:02:03;6.53;;;1.93;;
17153;SDS011;8692;52.164;7.558;2023-05-19T09:04:32;5.53;;;1.70;;
17153;SDS011;8692;52.164;7.558;2023-05-19T09:07:02;5.50;;;1.73;;
17153;SDS011;8692;52.164;7.558;2023-05-19T09:09:31;5.70;;;1.90;;
17153;SDS011;8692;52.164;7.558;2023-05-19T09:12:02;8.07;;;2.50;;
17153;SDS011;8692;52.164;7.558;2023-05-19T09:14:33;28.17;;;3.63;;
17153;SDS011;8692;52.164;7.558;2023-05-19T09:17:05;7.57;;;1.63;;
17153;SDS011;8692;52.164;7.558;2023-05-19T09:19:36;6.00;;;1.60;;
17153;SDS011;8692;52.164;7.558;2023-05-19T09:22:10;7.90;;;2.30;;
17153;SDS011;8692;52.164;7.558;2023-05-19T09:24:44;4.80;;;1.70;;
17153;SDS011;8692;52.164;7.558;2023-05-19T09:27:13;3.90;;;1.53;;
17153;SDS011;8692;52.164;7.558;2023-05-19T09:29:47;4.50;;;2.00;;
17153;SDS011;8692;52.164;7.558;2023-05-19T09:32:24;6.37;;;1.80;;
17153;SDS011;8692;52.164;7.558;2023-05-19T09:34:53;7.10;;;1.70;;
17153;SDS011;8692;52.164;7.558;2023-05-19T09:37:23;5.77;;;1.70;;
17153;SDS011;8692;52.164;7.558;2023-05-19T09:39:54;4.13;;;1.60;;
17153;SDS011;8692;52.164;7.558;2023-05-19T09:42:25;4.33;;;1.67;;
17153;SDS011;8692;52.164;7.558;2023-05-19T09:44:58;5.57;;;1.47;;
17153;SDS011;8692;52.164;7.558;2023-05-19T09:47:33;3.60;;;1.67;;
17153;SDS011;8692;52.164;7.558;2023-05-19T09:50:03;4.37;;;1.70;;
17153;SDS011;8692;52.164;7.558;2023-05-19T09:52:37;6.53;;;2.03;;
17153;SDS011;8692;52.164;7.558;2023-05-19T09:55:08;6.13;;;1.97;;
17153;SDS011;8692;52.164;7.558;2023-05-19T09:57:40;5.83;;;1.90;;
17153;SDS011;8692;52.164;7.558;2023-05-19T10:00:14;7.30;;;2.17;;
17153;SDS011;8692;52.164;7.558;2023-05-19T10:02:44;5.80;;;1.93;;
17153;SDS011;8692;52.164;7.558;2023-05-19T10:05:15;4.13;;;1.87;;
17153;SDS011;8692;52.164;7.558;2023-05-19T10:07:49;2.83;;;1.90;;
17153;SDS011;8692;52.164;7.558;2023-05-19T10:10:20;5.57;;;1.67;;
17153;SDS011;8692;52.164;7.558;2023-05-19T10:12:48;3.73;;;1.70;;
17153;SDS011;8692;52.164;7.558;2023-05-19T10:15:20;6.97;;;1.80;;
17153;SDS011;8692;52.164;7.558;2023-05-19T10:17:57;7.57;;;2.30;;
17153;SDS011;8692;52.164;7.558;2023-05-19T10:20:27;2.87;;;1.57;;
17153;SDS011;8692;52.164;7.558;2023-05-19T10:22:57;9.37;;;2.03;;
17153;SDS011;8692;52.164;7.558;2023-05-19T10:25:25;3.63;;;1.60;;
17153;SDS011;8692;52.164;7.558;2023-05-19T10:27:56;3.23;;;1.40;;
17153;SDS011;8692;52.164;7.558;2023-05-19T10:30:28;3.43;;;1.40;;
17153;SDS011;8692;52.164;7.558;2023-05-19T10:33:00;6.23;;;1.80;;
17153;SDS011;8692;52.164;7.558;2023-05-19T10:38:37;6.17;;;1.93;;
17153;SDS011;8692;52.164;7.558;2023-05-19T10:41:11;5.60;;;1.57;;
17153;SDS011;8692;52.164;7.558;2023-05-19T10:43:53;6.73;;;1.90;;
17153;SDS011;8692;52.164;7.558;2023-05-19T10:46:32;4.07;;;1.47;;
17153;SDS011;8692;52.164;7.558;2023-05-19T10:49:00;3.97;;;1.53;;
17153;SDS011;8692;52.164;7.558;2023-05-19T10:51:31;6.13;;;1.90;;
17153;SDS011;8692;52.164;7.558;2023-05-19T10:54:03;7.47;;;2.30;;
17153;SDS011;8692;52.164;7.558;2023-05-19T10:56:40;2.97;;;1.80;;
17153;SDS011;8692;52.164;7.558;2023-05-19T11:01:57;4.27;;;1.73;;
17153;SDS011;8692;52.164;7.558;2023-05-19T11:04:44;6.93;;;2.10;;
17153;SDS011;8692;52.164;7.558;2023-05-19T11:07:19;5.03;;;1.77;;
17153;SDS011;8692;52.164;7.558;2023-05-19T11:09:53;5.67;;;1.80;;
17153;SDS011;8692;52.164;7.558;2023-05-19T11:12:24;9.63;;;1.93;;
17153;SDS011;8692;52.164;7.558;2023-05-19T11:14:55;3.73;;;1.53;;
17153;SDS011;8692;52.164;7.558;2023-05-19T11:17:25;3.77;;;1.97;;
17153;SDS011;8692;52.164;7.558;2023-05-19T11:19:59;6.50;;;1.77;;
17153;SDS011;8692;52.164;7.558;2023-05-19T11:22:27;7.07;;;1.87;;
17153;SDS011;8692;52.164;7.558;2023-05-19T11:24:56;3.33;;;1.30;;
17153;SDS011;8692;52.164;7.558;2023-05-19T11:27:25;6.27;;;1.70;;
17153;SDS011;8692;52.164;7.558;2023-05-19T11:29:57;7.03;;;2.17;;
17153;SDS011;8692;52.164;7.558;2023-05-19T11:32:27;5.43;;;2.13;;
17153;SDS011;8692;52.164;7.558;2023-05-19T11:34:59;4.13;;;1.87;;
17153;SDS011;8692;52.164;7.558;2023-05-19T11:37:29;5.70;;;2.20;;
17153;SDS011;8692;52.164;7.558;2023-05-19T11:40:01;4.70;;;1.80;;
17153;SDS011;8692;52.164;7.558;2023-05-19T11:42:31;6.13;;;2.20;;
17153;SDS011;8692;52.164;7.558;2023-05-19T11:45:00;4.40;;;1.50;;
17153;SDS011;8692;52.164;7.558;2023-05-19T11:47:29;4.50;;;1.33;;
17153;SDS011;8692;52.164;7.558;2023-05-19T11:50:17;5.83;;;1.70;;
17153;SDS011;8692;52.164;7.558;2023-05-19T11:52:46;2.20;;;1.30;;
17153;SDS011;8692;52.164;7.558;2023-05-19T11:55:19;3.53;;;1.57;;
17153;SDS011;8692;52.164;7.558;2023-05-19T11:57:57;4.53;;;1.70;;
17153;SDS011;8692;52.164;7.558;2023-05-19T12:00:33;4.30;;;1.60;;
17153;SDS011;8692;52.164;7.558;2023-05-19T12:03:04;5.00;;;1.90;;
17153;SDS011;8692;52.164;7.558;2023-05-19T12:05:35;7.40;;;1.83;;
17153;SDS011;8692;52.164;7.558;2023-05-19T12:08:08;4.03;;;1.70;;
17153;SDS011;8692;52.164;7.558;2023-05-19T12:10:38;6.70;;;2.00;;
17153;SDS011;8692;52.164;7.558;2023-05-19T12:13:08;2.47;;;1.57;;
17153;SDS011;8692;52.164;7.558;2023-05-19T12:15:40;2.40;;;1.30;;
17153;SDS011;8692;52.164;7.558;2023-05-19T12:18:10;5.07;;;1.43;;
17153;SDS011;8692;52.164;7.558;2023-05-19T12:20:39;4.77;;;1.67;;
17153;SDS011;8692;52.164;7.558;2023-05-19T12:23:07;4.80;;;2.13;;
17153;SDS011;8692;52.164;7.558;2023-05-19T12:25:36;2.33;;;1.30;;
17153;SDS011;8692;52.164;7.558;2023-05-19T12:28:06;8.17;;;1.73;;
17153;SDS011;8692;52.164;7.558;2023-05-19T12:30:34;4.90;;;1.80;;
17153;SDS011;8692;52.164;7.558;2023-05-19T12:33:03;4.50;;;1.87;;
17153;SDS011;8692;52.164;7.558;2023-05-19T12:35:31;3.63;;;1.83;;
17153;SDS011;8692;52.164;7.558;2023-05-19T12:38:03;3.60;;;1.50;;
17153;SDS011;8692;52.164;7.558;2023-05-19T12:40:32;4.40;;;1.73;;
17153;SDS011;8692;52.164;7.558;2023-05-19T12:43:03;2.87;;;1.80;;
17153;SDS011;8692;52.164;7.558;2023-05-19T12:45:32;3.17;;;1.50;;
17153;SDS011;8692;52.164;7.558;2023-05-19T12:48:02;3.70;;;1.63;;
17153;SDS011;8692;52.164;7.558;2023-05-19T12:50:35;3.87;;;1.60;;
17153;SDS011;8692;52.164;7.558;2023-05-19T12:53:06;4.77;;;1.80;;
17153;SDS011;8692;52.164;7.558;2023-05-19T12:55:37;4.00;;;1.47;;
17153;SDS011;8692;52.164;7.558;2023-05-19T12:58:08;2.83;;;1.70;;
17153;SDS011;8692;52.164;7.558;2023-05-19T13:00:40;6.23;;;1.67;;
17153;SDS011;8692;52.164;7.558;2023-05-19T13:03:13;3.17;;;1.70;;
17153;SDS011;8692;52.164;7.558;2023-05-19T13:05:43;3.47;;;1.70;;
17153;SDS011;8692;52.164;7.558;2023-05-19T13:08:13;3.57;;;1.30;;
17153;SDS011;8692;52.164;7.558;2023-05-19T13:10:44;3.27;;;1.77;;
17153;SDS011;8692;52.164;7.558;2023-05-19T13:13:15;3.63;;;1.53;;
17153;SDS011;8692;52.164;7.558;2023-05-19T13:15:45;2.17;;;1.40;;
17153;SDS011;8692;52.164;7.558;2023-05-19T13:18:17;4.07;;;1.53;;
17153;SDS011;8692;52.164;7.558;2023-05-19T13:20:46;3.90;;;1.37;;
17153;SDS011;8692;52.164;7.558;2023-05-19T13:23:15;4.23;;;1.67;;
17153;SDS011;8692;52.164;7.558;2023-05-19T13:25:44;3.37;;;1.40;;
17153;SDS011;8692;52.164;7.558;2023-05-19T13:28:12;4.70;;;1.80;;
17153;SDS011;8692;52.164;7.558;2023-05-19T13:30:42;5.30;;;1.70;;
17153;SDS011;8692;52.164;7.558;2023-05-19T13:33:14;4.67;;;1.70;;
17153;SDS011;8692;52.164;7.558;2023-05-19T13:35:42;3.80;;;1.60;;
17153;SDS011;8692;52.164;7.558;2023-05-19T13:38:13;2.70;;;1.37;;
17153;SDS011;8692;52.164;7.558;2023-05-19T13:40:41;3.77;;;1.60;;
17153;SDS011;8692;52.164;7.558;2023-05-19T13:43:10;2.30;;;1.23;;
17153;SDS011;8692;52.164;7.558;2023-05-19T13:45:40;4.50;;;1.40;;
17153;SDS011;8692;52.164;7.558;2023-05-19T13:48:09;3.53;;;1.60;;
17153;SDS011;8692;52.164;7.558;2023-05-19T13:50:38;7.00;;;1.80;;
17153;SDS011;8692;52.164;7.558;2023-05-19T13:53:06;2.57;;;1.30;;
17153;SDS011;8692;52.164;7.558;2023-05-19T13:55:36;2.60;;;1.33;;
17153;SDS011;8692;52.164;7.558;2023-05-19T13:58:05;4.10;;;1.60;;
17153;SDS011;8692;52.164;7.558;2023-05-19T14:00:36;2.20;;;1.60;;
17153;SDS011;8692;52.164;7.558;2023-05-19T14:03:06;2.93;;;1.37;;
17153;SDS011;8692;52.164;7.558;2023-05-19T14:05:37;1.90;;;1.40;;
17153;SDS011;8692;52.164;7.558;2023-05-19T14:08:05;3.33;;;1.23;;
17153;SDS011;8692;52.164;7.558;2023-05-19T14:10:33;1.90;;;1.33;;
17153;SDS011;8692;52.164;7.558;2023-05-19T14:13:04;3.00;;;1.30;;
17153;SDS011;8692;52.164;7.558;2023-05-19T14:15:54;3.93;;;1.40;;
17153;SDS011;8692;52.164;7.558;2023-05-19T14:18:26;3.07;;;1.80;;
17153;SDS011;8692;52.164;7.558;2023-05-19T14:20:54;4.17;;;1.43;;
17153;SDS011;8692;52.164;7.558;2023-05-19T14:23:26;1.73;;;1.33;;
17153;SDS011;8692;52.164;7.558;2023-05-19T14:25:55;3.07;;;1.50;;
17153;SDS011;8692;52.164;7.558;2023-05-19T14:28:23;4.50;;;1.97;;
17153;SDS011;8692;52.164;7.558;2023-05-19T14:30:52;2.10;;;1.30;;
17153;SDS011;8692;52.164;7.558;2023-05-19T14:33:23;2.90;;;1.27;;
17153;SDS011;8692;52.164;7.558;2023-05-19T14:35:52;8.57;;;1.70;;
17153;SDS011;8692;52.164;7.558;2023-05-19T14:38:25;5.10;;;1.40;;
17153;SDS011;8692;52.164;7.558;2023-05-19T14:40:55;2.93;;;1.57;;
17153;SDS011;8692;52.164;7.558;2023-05-19T14:43:23;2.57;;;1.47;;
17153;SDS011;8692;52.164;7.558;2023-05-19T14:45:51;4.37;;;1.70;;
17153;SDS011;8692;52.164;7.558;2023-05-19T14:48:19;3.13;;;1.13;;
17153;SDS011;8692;52.164;7.558;2023-05-19T14:50:47;2.83;;;1.47;;
17153;SDS011;8692;52.164;7.558;2023-05-19T14:53:17;5.10;;;1.40;;
17153;SDS011;8692;52.164;7.558;2023-05-19T14:55:46;1.67;;;1.10;;
17153;SDS011;8692;52.164;7.558;2023-05-19T14:58:14;3.27;;;1.60;;
17153;SDS011;8692;52.164;7.558;2023-05-19T15:00:55;2.97;;;1.33;;
17153;SDS011;8692;52.164;7.558;2023-05-19T15:03:27;3.70;;;1.57;;
17153;SDS011;8692;52.164;7.558;2023-05-19T15:05:55;3.63;;;1.37;;
17153;SDS011;8692;52.164;7.558;2023-05-19T15:08:25;4.47;;;1.57;;
17153;SDS011;8692;52.164;7.558;2023-05-19T15:10:55;2.23;;;1.47;;
17153;SDS011;8692;52.164;7.558;2023-05-19T15:13:23;3.27;;;1.60;;
17153;SDS011;8692;52.164;7.558;2023-05-19T15:15:52;4.40;;;1.73;;
17153;SDS011;8692;52.164;7.558;2023-05-19T15:18:41;3.40;;;1.30;;
17153;SDS011;8692;52.164;7.558;2023-05-19T15:21:09;2.57;;;1.40;;
17153;SDS011;8692;52.164;7.558;2023-05-19T15:23:39;6.20;;;1.73;;
17153;SDS011;8692;52.164;7.558;2023-05-19T15:26:09;4.03;;;1.40;;
17153;SDS011;8692;52.164;7.558;2023-05-19T15:28:40;3.40;;;1.60;;
17153;SDS011;8692;52.164;7.558;2023-05-19T15:31:10;3.43;;;1.30;;
17153;SDS011;8692;52.164;7.558;2023-05-19T15:33:39;3.13;;;1.50;;